PWSweather.com
Personal Weather Stations
Station Observations
COONRAPIDS
Minneapolis, MN 55433

Minneapolis, MN 55433

Lat: 45.187721, Lon: -93.36828

Elevation: 898

Station Type: Davis Vantage Pro 2

Latest ConditionsUpdated 9:30:01 AM CDT Friday, Jul 20, 2018
Currently Today's Max Today's Min Today's Average
Temperature 65.7°F18.7°C 65.7°F18.7°C 63.4°F17.4°C 63.9°F17.7°C
Dew Point 62.4°F16.9°C 62.4°F16.9°C 59.1°F15.1°C 60.4°F15.8°C
Winds Calm Calm 1.2 mph -1.9 kmh - - 0.0 mph 0.0 kmh
Wind Gusts -- 3.5 mph5.6 kmh - -
Humidity 89% 89% 84% 88%
Pressure 29.79 in1008.8 mb 29.79 in1008.8 mb 29.67 in1004.7 mb -
Precipitation - 0.06 in1.5 mm - -
Hour Temp Dew Point Humidity Winds Wind Gusts Pressure Precip Precip Rate Daily Precip Total
09:30 AM 65.7°F18.7°C 62.4°F16.9°C 89% Calm Calm -- 29.79 in1008.8 mb - 0.00 in0.0 mm 0.06 in1.5 mm
09:20 AM 65.4°F18.6°C 62.0°F16.7°C 89% Calm Calm 1.2 mph1.9 kmh 29.79 in1008.8 mb - 0.00 in0.0 mm 0.06 in1.5 mm
09:10 AM 65.2°F18.4°C 61.9°F16.6°C 89% Calm Calm 2.3 mph3.7 kmh 29.79 in1008.8 mb - 0.00 in0.0 mm 0.06 in1.5 mm
09:00 AM 64.9°F18.3°C 61.6°F16.4°C 89% Calm Calm -- 29.78 in1008.5 mb - 0.00 in0.0 mm 0.06 in1.5 mm
08:50 AM 64.7°F18.2°C 61.4°F16.3°C 89% Calm Calm -- 29.78 in1008.5 mb - 0.00 in0.0 mm 0.06 in1.5 mm
08:40 AM 64.5°F18.1°C 61.2°F16.2°C 89% Calm Calm 2.3 mph3.7 kmh 29.77 in1008.1 mb - 0.00 in0.0 mm 0.06 in1.5 mm
08:30 AM 64.3°F17.9°C 61.0°F16.1°C 89% Calm Calm -- 29.77 in1008.1 mb - 0.00 in0.0 mm 0.06 in1.5 mm
08:20 AM 64.1°F17.8°C 60.8°F16.0°C 89% Calm Calm 1.2 mph1.9 kmh 29.77 in1008.1 mb - 0.01 in0.3 mm 0.06 in1.5 mm
08:10 AM 64.0°F17.8°C 60.7°F15.9°C 89% Calm Calm -- 29.77 in1008.1 mb - 0.00 in0.0 mm 0.05 in1.3 mm
08:00 AM 63.9°F17.7°C 60.6°F15.9°C 89% Calm Calm -- 29.76 in1007.8 mb - 0.00 in0.0 mm 0.05 in1.3 mm
07:50 AM 63.8°F17.7°C 60.5°F15.8°C 89% Calm Calm -- 29.76 in1007.8 mb - 0.00 in0.0 mm 0.05 in1.3 mm
07:40 AM 63.8°F17.7°C 60.5°F15.8°C 89% Calm Calm -- 29.76 in1007.8 mb - 0.00 in0.0 mm 0.05 in1.3 mm
07:30 AM 63.8°F17.7°C 60.5°F15.8°C 89% Calm Calm -- 29.75 in1007.5 mb - 0.00 in0.0 mm 0.05 in1.3 mm
07:20 AM 63.8°F17.7°C 60.5°F15.8°C 89% Calm Calm -- 29.75 in1007.5 mb - 0.00 in0.0 mm 0.05 in1.3 mm
07:10 AM 63.8°F17.7°C 60.5°F15.8°C 89% Calm Calm -- 29.74 in1007.1 mb - 0.00 in0.0 mm 0.05 in1.3 mm
07:00 AM 63.8°F17.7°C 60.5°F15.8°C 89% Calm Calm -- 29.74 in1007.1 mb - 0.00 in0.0 mm 0.05 in1.3 mm
06:50 AM 63.8°F17.7°C 60.5°F15.8°C 89% Calm Calm -- 29.73 in1006.8 mb - 0.00 in0.0 mm 0.05 in1.3 mm
06:40 AM 63.8°F17.7°C 60.5°F15.8°C 89% Calm Calm -- 29.73 in1006.8 mb - 0.00 in0.0 mm 0.05 in1.3 mm
06:30 AM 63.8°F17.7°C 60.5°F15.8°C 89% Calm Calm -- 29.72 in1006.4 mb - 0.00 in0.0 mm 0.05 in1.3 mm
06:20 AM 63.8°F17.7°C 60.5°F15.8°C 89% Calm Calm -- 29.72 in1006.4 mb - 0.00 in0.0 mm 0.05 in1.3 mm
06:10 AM 63.8°F17.7°C 60.5°F15.8°C 89% Calm Calm -- 29.72 in1006.4 mb - 0.00 in0.0 mm 0.05 in1.3 mm
06:00 AM 63.7°F17.6°C 60.4°F15.8°C 89% Calm Calm -- 29.72 in1006.4 mb - 0.00 in0.0 mm 0.05 in1.3 mm
05:50 AM 63.7°F17.6°C 60.4°F15.8°C 89% Calm Calm -- 29.71 in1006.1 mb - 0.01 in0.3 mm 0.05 in1.3 mm
05:40 AM 63.7°F17.6°C 60.4°F15.8°C 89% Calm Calm -- 29.71 in1006.1 mb - 0.00 in0.0 mm 0.04 in1.0 mm
05:30 AM 63.6°F17.6°C 60.3°F15.7°C 89% Calm Calm -- 29.71 in1006.1 mb - 0.00 in0.0 mm 0.04 in1.0 mm
05:20 AM 63.6°F17.6°C 60.3°F15.7°C 89% Calm Calm -- 29.70 in1005.8 mb - 0.00 in0.0 mm 0.04 in1.0 mm
05:10 AM 63.6°F17.6°C 60.3°F15.7°C 89% Calm Calm -- 29.70 in1005.8 mb - 0.00 in0.0 mm 0.04 in1.0 mm
05:00 AM 63.6°F17.6°C 60.3°F15.7°C 89% Calm Calm -- 29.70 in1005.8 mb - 0.01 in0.3 mm 0.04 in1.0 mm
04:50 AM 63.6°F17.6°C 60.3°F15.7°C 89% Calm Calm -- 29.70 in1005.8 mb - 0.00 in0.0 mm 0.03 in0.8 mm
04:40 AM 63.6°F17.6°C 60.3°F15.7°C 89% Calm Calm -- 29.70 in1005.8 mb - 0.00 in0.0 mm 0.03 in0.8 mm
04:30 AM 63.6°F17.6°C 60.3°F15.7°C 89% Calm Calm -- 29.70 in1005.8 mb - 0.00 in0.0 mm 0.03 in0.8 mm
04:20 AM 63.6°F17.6°C 60.3°F15.7°C 89% Calm Calm -- 29.69 in1005.4 mb - 0.00 in0.0 mm 0.03 in0.8 mm
04:10 AM 63.6°F17.6°C 60.3°F15.7°C 89% Calm Calm -- 29.69 in1005.4 mb - 0.00 in0.0 mm 0.03 in0.8 mm
04:00 AM 63.6°F17.6°C 60.3°F15.7°C 89% Calm Calm -- 29.69 in1005.4 mb - 0.00 in0.0 mm 0.03 in0.8 mm
03:50 AM 63.6°F17.6°C 60.3°F15.7°C 89% Calm Calm -- 29.69 in1005.4 mb - 0.00 in0.0 mm 0.03 in0.8 mm
03:40 AM 63.6°F17.6°C 60.3°F15.7°C 89% Calm Calm -- 29.68 in1005.1 mb - 0.00 in0.0 mm 0.03 in0.8 mm
03:30 AM 63.6°F17.6°C 60.3°F15.7°C 89% Calm Calm -- 29.68 in1005.1 mb - 0.00 in0.0 mm 0.03 in0.8 mm
03:20 AM 63.6°F17.6°C 60.3°F15.7°C 89% Calm Calm -- 29.68 in1005.1 mb - 0.00 in0.0 mm 0.03 in0.8 mm
03:10 AM 63.5°F17.5°C 60.2°F15.7°C 89% Calm Calm -- 29.68 in1005.1 mb - 0.00 in0.0 mm 0.03 in0.8 mm
03:00 AM 63.5°F17.5°C 60.2°F15.7°C 89% Calm Calm -- 29.68 in1005.1 mb - 0.00 in0.0 mm 0.03 in0.8 mm
02:50 AM 63.4°F17.4°C 59.8°F15.4°C 88% Calm Calm -- 29.68 in1005.1 mb - 0.00 in0.0 mm 0.03 in0.8 mm
02:40 AM 63.4°F17.4°C 59.8°F15.4°C 88% Calm Calm -- 29.68 in1005.1 mb - 0.00 in0.0 mm 0.03 in0.8 mm
02:20 AM 63.4°F17.4°C 59.8°F15.4°C 88% Calm Calm -- 29.68 in1005.1 mb - 0.00 in0.0 mm 0.02 in0.5 mm
02:00 AM 63.6°F17.6°C 60.0°F15.6°C 88% Calm Calm -- 29.68 in1005.1 mb - 0.00 in0.0 mm 0.02 in0.5 mm
01:50 AM 63.7°F17.6°C 60.1°F15.6°C 88% Calm Calm -- 29.68 in1005.1 mb - 0.00 in0.0 mm 0.02 in0.5 mm
01:40 AM 63.7°F17.6°C 59.8°F15.4°C 87% Calm Calm -- 29.68 in1005.1 mb - 0.01 in0.3 mm 0.02 in0.5 mm
01:30 AM 63.8°F17.7°C 59.9°F15.5°C 87% Calm Calm -- 29.68 in1005.1 mb - 0.00 in0.0 mm 0.01 in0.3 mm
01:20 AM 64.0°F17.8°C 60.1°F15.6°C 87% Calm Calm -- 29.67 in1004.7 mb - 0.00 in0.0 mm 0.01 in0.3 mm
01:10 AM 64.1°F17.8°C 59.8°F15.4°C 86% Calm Calm -- 29.67 in1004.7 mb - 0.01 in0.3 mm 0.01 in0.3 mm
12:40 AM 64.2°F17.9°C 59.6°F15.3°C 85% Calm Calm -- 29.67 in1004.7 mb - 0.00 in0.0 mm 0.00 in0.0 mm
12:30 AM 64.1°F17.8°C 59.5°F15.3°C 85% 1.2 mph ENE1.9 kmh ENE 3.5 mph5.6 kmh 29.67 in1004.7 mb - 0.00 in0.0 mm 0.00 in0.0 mm
12:20 AM 64.1°F17.8°C 59.5°F15.3°C 85% Calm Calm -- 29.67 in1004.7 mb - 0.00 in0.0 mm 0.00 in0.0 mm
12:10 AM 64.0°F17.8°C 59.4°F15.2°C 85% Calm Calm -- 29.67 in1004.7 mb - 0.00 in0.0 mm 0.00 in0.0 mm
12:00 AM 64.0°F17.8°C 59.1°F15.1°C 84% Calm Calm 2.3 mph3.7 kmh 29.67 in1004.7 mb - 0.00 in0.0 mm 0.00 in0.0 mm